Time;durP1;ratioP1;P1;durP2;ratioP2;P2;SDS_P1;SDS_P2;PMS_P1;PMS_P2;Temp;Humidity;BMP_temperature;BMP_pressure;BME280_temperature;BME280_humidity;BME280_pressure;Samples;Min_cycle;Max_cycle;Signal;HPM_P1;HPM_P2
2023/03/27 00:01:00;;;;;;;4.95;0.50;;;3.10;99.90;;;;;;5074060;28;20547;-67
2023/03/27 00:03:27;;;;;;;2.55;0.35;;;3.10;99.90;;;;;;5055781;28;20055;-67
2023/03/27 00:06:05;;;;;;;0.95;0.60;;;3.10;94.60;;;;;;5072889;28;20049;-67
2023/03/27 00:08:31;;;;;;;2.20;0.50;;;3.10;62.00;;;;;;5074007;28;20066;-67
2023/03/27 00:10:57;;;;;;;1.45;0.40;;;4.10;51.00;;;;;;5055743;28;20051;-67
2023/03/27 00:13:23;;;;;;;3.75;0.50;;;3.00;75.90;;;;;;5073884;28;20171;-67
2023/03/27 00:15:52;;;;;;;2.92;0.85;;;3.00;91.00;;;;;;5055568;28;20102;-67
2023/03/27 00:18:18;;;;;;;1.25;0.85;;;3.00;99.90;;;;;;5055571;28;20033;-67
2023/03/27 00:20:44;;;;;;;5.38;1.00;;;3.00;99.90;;;;;;5073505;28;20028;-67
2023/03/27 00:23:11;;;;;;;2.28;0.52;;;3.00;99.90;;;;;;5073626;28;20036;-67
2023/03/27 00:25:37;;;;;;;0.98;0.50;;;3.00;99.90;;;;;;5073338;28;20094;-67
2023/03/27 00:28:03;;;;;;;1.27;0.40;;;3.00;99.50;;;;;;5073288;28;20040;-67
2023/03/27 00:30:30;;;;;;;2.03;0.73;;;3.00;99.00;;;;;;5055510;28;20055;-67
2023/03/27 00:32:57;;;;;;;6.35;0.63;;;3.80;97.60;;;;;;5055440;28;20032;-67
2023/03/27 00:35:25;;;;;;;1.67;0.65;;;2.90;99.90;;;;;;5055511;28;20400;-67
2023/03/27 00:37:51;;;;;;;0.45;0.45;;;2.90;99.90;;;;;;5073409;28;20457;-67
2023/03/27 00:40:17;;;;;;;3.35;0.40;;;2.90;99.90;;;;;;5055450;28;20513;-67
2023/03/27 00:42:44;;;;;;;1.50;0.30;;;2.90;99.90;;;;;;5055213;28;20041;-67
2023/03/27 00:45:22;;;;;;;3.83;0.65;;;3.30;99.90;;;;;;5038796;28;20400;-67
2023/03/27 00:47:55;;;;;;;3.30;0.57;;;2.90;99.90;;;;;;5038469;28;20404;-67
2023/03/27 00:50:25;;;;;;;4.50;0.68;;;2.90;99.90;;;;;;5073196;28;20041;-67
2023/03/27 00:53:00;;;;;;;2.00;0.80;;;2.80;99.90;;;;;;5073290;28;20032;-67
2023/03/27 00:55:28;;;;;;;0.73;0.25;;;2.80;99.90;;;;;;5072911;28;20040;-67
2023/03/27 00:58:00;;;;;;;3.55;0.57;;;2.80;99.90;;;;;;5054991;28;20451;-67
2023/03/27 01:00:26;;;;;;;1.90;0.35;;;2.80;99.90;;;;;;5054910;28;20097;-67
2023/03/27 01:02:54;;;;;;;4.68;0.60;;;2.80;99.90;;;;;;5055109;28;20036;-67
2023/03/27 01:05:20;;;;;;;0.50;0.50;;;2.80;99.90;;;;;;5072714;28;20127;-67
2023/03/27 01:07:47;;;;;;;0.43;0.35;;;2.80;99.90;;;;;;5054886;28;20059;-67
2023/03/27 01:10:15;;;;;;;0.73;0.45;;;2.70;99.90;;;;;;5072839;28;20480;-67
2023/03/27 01:12:45;;;;;;;0.70;0.70;;;2.80;99.90;;;;;;5054855;28;20389;-66
2023/03/27 01:15:28;;;;;;;6.35;0.68;;;2.80;99.90;;;;;;5054715;28;20038;-66
2023/03/27 01:18:12;;;;;;;1.02;0.30;;;2.80;99.90;;;;;;5072363;28;20048;-67
2023/03/27 01:20:44;;;;;;;0.88;0.55;;;2.70;99.90;;;;;;5054929;28;20080;-67
2023/03/27 01:23:52;;;;;;;3.92;0.52;;;2.70;99.90;;;;;;5054673;28;20049;-67
2023/03/27 01:26:27;;;;;;;0.57;0.32;;;2.60;99.90;;;;;;5054723;28;20040;-67
2023/03/27 01:29:08;;;;;;;1.02;0.25;;;2.60;99.90;;;;;;5072877;28;20052;-67
2023/03/27 01:32:13;;;;;;;3.55;0.90;;;2.60;99.90;;;;;;5072849;28;20040;-67
2023/03/27 01:35:09;;;;;;;0.20;0.20;;;2.60;99.90;;;;;;5054563;28;20054;-67
2023/03/27 01:37:58;;;;;;;2.35;0.57;;;2.50;99.90;;;;;;5072716;28;20051;-68
2023/03/27 01:40:54;;;;;;;0.35;0.30;;;2.50;99.90;;;;;;5054577;28;20045;-68
2023/03/27 01:43:34;;;;;;;5.65;0.50;;;2.50;99.90;;;;;;5054490;28;20048;-67
2023/03/27 01:46:07;;;;;;;1.25;0.47;;;2.50;99.90;;;;;;5072650;28;20043;-67
2023/03/27 01:48:45;;;;;;;1.40;0.47;;;2.50;99.90;;;;;;5037797;28;20049;-67
2023/03/27 01:51:18;;;;;;;2.42;0.40;;;2.50;99.90;;;;;;5054293;28;20041;-67
2023/03/27 01:53:54;;;;;;;0.30;0.30;;;2.70;1.00;;;;;;5072614;28;20396;-67
2023/03/27 01:56:30;;;;;;;0.47;0.47;;;2.60;99.90;;;;;;5072254;28;20051;-67
2023/03/27 01:59:16;;;;;;;2.78;0.40;;;2.50;99.90;;;;;;5072610;28;20044;-67
2023/03/27 02:01:46;;;;;;;4.10;0.52;;;2.50;99.90;;;;;;5072746;28;20503;-67
2023/03/27 02:04:18;;;;;;;0.82;0.30;;;2.50;99.90;;;;;;5083590;23;20055;-66
2023/03/27 02:06:57;;;;;;;0.20;0.20;;;2.50;99.90;;;;;;5072449;28;20052;-66
2023/03/27 02:09:43;;;;;;;5.50;0.40;;;2.40;99.90;;;;;;5072465;28;20380;-66
2023/03/27 02:12:15;;;;;;;1.75;0.60;;;0.70;99.90;;;;;;5072449;28;20041;-66
2023/03/27 02:14:52;;;;;;;0.88;0.35;;;2.40;99.90;;;;;;5072500;28;20044;-66
2023/03/27 02:17:20;;;;;;;2.00;0.43;;;2.40;99.90;;;;;;5072353;28;20124;-66
2023/03/27 02:19:59;;;;;;;1.95;0.43;;;2.40;99.90;;;;;;5072344;28;20041;-67
2023/03/27 02:22:25;;;;;;;0.68;0.28;;;2.30;99.90;;;;;;5054156;28;20033;-66
2023/03/27 02:24:55;;;;;;;0.65;0.38;;;2.30;99.90;;;;;;5072337;28;20037;-66
2023/03/27 02:27:32;;;;;;;1.75;0.75;;;2.30;99.90;;;;;;5071967;28;20051;-66
2023/03/27 02:30:12;;;;;;;0.45;0.30;;;2.30;99.90;;;;;;5074685;28;20047;-66
2023/03/27 02:32:44;;;;;;;0.80;0.30;;;2.20;99.90;;;;;;5075841;28;20045;-66
2023/03/27 02:35:44;;;;;;;2.83;0.98;;;2.20;99.90;;;;;;5075851;28;20052;-66
2023/03/27 02:38:43;;;;;;;3.85;1.10;;;2.10;99.90;;;;;;5057998;28;20053;-66
2023/03/27 02:41:21;;;;;;;5.95;0.98;;;2.10;1.00;;;;;;5075667;28;20495;-66
2023/03/27 02:43:58;;;;;;;5.55;0.50;;;2.00;1.00;;;;;;5075598;28;20037;-66
2023/03/27 02:47:06;;;;;;;4.43;0.60;;;3.50;1.00;;;;;;5075562;28;20040;-66
2023/03/27 02:49:38;;;;;;;4.47;0.30;;;2.00;1.00;;;;;;5075100;28;20411;-66
2023/03/27 02:52:10;;;;;;;2.00;0.38;;;2.00;1.00;;;;;;5075456;28;20043;-66
2023/03/27 02:54:43;;;;;;;5.88;0.40;;;2.10;1.00;;;;;;5075469;28;20036;-66
2023/03/27 02:57:14;;;;;;;3.83;0.40;;;2.20;1.00;;;;;;5075303;28;20041;-66
2023/03/27 02:59:53;;;;;;;0.60;0.40;;;2.20;1.00;;;;;;5075118;28;20036;-66
2023/03/27 03:02:31;;;;;;;6.30;0.70;;;2.20;99.90;;;;;;5075060;28;20041;-66
2023/03/27 03:05:02;;;;;;;5.60;0.77;;;2.30;99.90;;;;;;5074984;28;20133;-66
2023/03/27 03:07:28;;;;;;;3.42;0.50;;;2.30;99.90;;;;;;5057356;28;20488;-66
2023/03/27 03:09:54;;;;;;;0.82;0.35;;;2.30;99.90;;;;;;5075116;28;20078;-66
2023/03/27 03:12:20;;;;;;;1.83;0.40;;;2.30;99.90;;;;;;5074786;28;20399;-66
2023/03/27 03:14:46;;;;;;;0.80;0.35;;;2.30;99.90;;;;;;5075081;28;20430;-66
2023/03/27 03:17:13;;;;;;;2.70;0.57;;;2.20;99.90;;;;;;5074963;28;20491;-66
2023/03/27 03:19:39;;;;;;;0.30;0.30;;;2.30;99.90;;;;;;5075050;28;20044;-66
2023/03/27 03:22:05;;;;;;;1.52;0.43;;;2.30;99.90;;;;;;5074463;28;20029;-67
2023/03/27 03:24:34;;;;;;;4.40;0.50;;;2.20;99.90;;;;;;5074895;28;20123;-66
2023/03/27 03:27:00;;;;;;;1.98;0.80;;;2.20;99.90;;;;;;5074504;28;20123;-66
2023/03/27 03:29:29;;;;;;;0.95;0.40;;;2.20;99.90;;;;;;5074525;28;20129;-66
2023/03/27 03:31:58;;;;;;;1.63;0.43;;;2.20;99.90;;;;;;5074683;28;20039;-66
2023/03/27 03:34:23;;;;;;;3.63;0.52;;;2.20;99.90;;;;;;5074711;28;20395;-66
2023/03/27 03:36:49;;;;;;;4.22;0.52;;;2.20;99.90;;;;;;5056711;28;20048;-66
2023/03/27 03:39:15;;;;;;;9.43;0.80;;;2.10;1.00;;;;;;5074575;28;20380;-66
2023/03/27 03:41:41;;;;;;;1.73;0.40;;;2.10;1.00;;;;;;5074456;28;20086;-66
2023/03/27 03:44:07;;;;;;;6.10;0.65;;;2.10;1.00;;;;;;5074241;28;20484;-66
2023/03/27 03:46:33;;;;;;;2.13;0.60;;;2.10;1.00;;;;;;5074165;28;20032;-66
2023/03/27 03:48:59;;;;;;;0.95;0.50;;;2.10;1.00;;;;;;5074377;28;20106;-66
2023/03/27 03:51:25;;;;;;;4.90;0.40;;;2.00;1.00;;;;;;5074327;28;20403;-66
2023/03/27 03:53:51;;;;;;;0.52;0.47;;;2.00;1.00;;;;;;5073995;28;20745;-66
2023/03/27 03:56:17;;;;;;;2.33;0.85;;;1.90;1.00;;;;;;5074212;28;20041;-66
2023/03/27 03:58:42;;;;;;;1.15;0.40;;;1.90;1.00;;;;;;5056389;28;20098;-66
2023/03/27 04:01:09;;;;;;;3.60;0.73;;;1.80;1.00;;;;;;5056371;28;20055;-66
2023/03/27 04:03:35;;;;;;;3.60;0.70;;;1.80;1.00;;;;;;5074120;28;20036;-66
2023/03/27 04:06:04;;;;;;;0.57;0.40;;;1.80;1.00;;;;;;5073625;28;20053;-66
2023/03/27 04:08:30;;;;;;;1.33;0.50;;;1.70;1.00;;;;;;5074018;28;20040;-66
2023/03/27 04:10:56;;;;;;;3.58;0.55;;;1.70;1.00;;;;;;5073921;28;20071;-66
2023/03/27 04:13:22;;;;;;;0.85;0.65;;;1.70;1.00;;;;;;5073927;28;20506;-66
2023/03/27 04:15:48;;;;;;;0.65;0.40;;;1.60;1.00;;;;;;5073536;28;20051;-66
2023/03/27 04:18:15;;;;;;;1.85;0.40;;;1.60;1.00;;;;;;5073782;28;20045;-66
2023/03/27 04:20:40;;;;;;;3.38;0.50;;;1.60;1.00;;;;;;5073762;28;20408;-66
2023/03/27 04:23:07;;;;;;;0.30;0.25;;;1.60;1.00;;;;;;5073713;28;20035;-66
2023/03/27 04:25:32;;;;;;;4.65;0.35;;;1.60;1.00;;;;;;5073351;28;20043;-66
2023/03/27 04:28:01;;;;;;;2.10;0.55;;;1.60;1.00;;;;;;5073350;28;20127;-66
2023/03/27 04:30:26;;;;;;;2.72;0.50;;;1.70;1.00;;;;;;5073646;28;20040;-66
2023/03/27 04:32:53;;;;;;;3.53;0.65;;;1.70;1.00;;;;;;5073507;28;20135;-66
2023/03/27 04:35:20;;;;;;;7.13;0.95;;;1.80;1.00;;;;;;5055617;28;20482;-69
2023/03/27 04:37:47;;;;;;;1.85;0.80;;;1.90;1.00;;;;;;5073407;28;20090;-66
2023/03/27 04:40:16;;;;;;;1.63;0.32;;;1.90;1.00;;;;;;5073506;28;20115;-66
2023/03/27 04:42:43;;;;;;;8.82;1.08;;;1.90;2.40;;;;;;5073382;28;20063;-66
2023/03/27 04:45:16;;;;;;;1.48;0.55;;;1.90;1.00;;;;;;5073413;28;20407;-66
2023/03/27 04:47:42;;;;;;;4.35;0.60;;;1.90;1.00;;;;;;5073391;28;20047;-67
2023/03/27 04:50:09;;;;;;;1.75;0.43;;;1.80;1.00;;;;;;5073337;28;20399;-66
2023/03/27 04:52:35;;;;;;;2.35;0.40;;;1.80;1.00;;;;;;5072811;28;20040;-68
2023/03/27 04:55:03;;;;;;;1.60;0.55;;;1.80;1.00;;;;;;5055454;28;20036;-66
2023/03/27 04:57:32;;;;;;;0.82;0.52;;;1.80;1.00;;;;;;5054918;28;20045;-66
2023/03/27 04:59:59;;;;;;;1.23;0.70;;;1.80;1.00;;;;;;5072891;28;20153;-66
2023/03/27 05:02:25;;;;;;;0.93;0.30;;;1.70;1.00;;;;;;5073173;28;20040;-66
2023/03/27 05:04:57;;;;;;;2.28;0.30;;;1.70;1.00;;;;;;5072888;28;20059;-66
2023/03/27 05:07:27;;;;;;;2.38;0.57;;;1.70;1.00;;;;;;5054905;28;20044;-67
2023/03/27 05:09:53;;;;;;;3.60;0.63;;;1.70;1.00;;;;;;5072993;28;20044;-66
2023/03/27 05:12:20;;;;;;;3.28;0.43;;;1.70;1.00;;;;;;5073123;28;20119;-66
2023/03/27 05:14:47;;;;;;;5.10;0.80;;;1.60;1.00;;;;;;5073000;28;20116;-66
2023/03/27 05:17:16;;;;;;;6.07;0.60;;;1.70;1.00;;;;;;5072669;28;20045;-66
2023/03/27 05:19:42;;;;;;;1.98;0.40;;;1.70;1.00;;;;;;5072988;28;20072;-66
2023/03/27 05:22:08;;;;;;;3.45;0.35;;;1.70;1.00;;;;;;5072820;28;20029;-66
2023/03/27 05:24:33;;;;;;;1.20;0.70;;;1.70;1.00;;;;;;5054950;28;20383;-66
2023/03/27 05:26:59;;;;;;;1.95;0.50;;;1.70;1.00;;;;;;5072910;28;20040;-66
2023/03/27 05:29:25;;;;;;;1.00;0.73;;;1.70;11.90;;;;;;5072936;28;20521;-66
2023/03/27 05:31:51;;;;;;;2.60;0.60;;;1.80;1.40;;;;;;5072876;28;20419;-67
2023/03/27 05:34:18;;;;;;;1.75;0.70;;;1.90;1.00;;;;;;5072534;28;20032;-67
2023/03/27 05:36:44;;;;;;;1.05;0.95;;;1.90;1.00;;;;;;5072686;28;20372;-66
2023/03/27 05:39:09;;;;;;;0.82;0.40;;;1.90;1.00;;;;;;5072755;28;20032;-66
2023/03/27 05:41:35;;;;;;;2.42;0.52;;;1.90;1.00;;;;;;5073290;28;20112;-67
2023/03/27 05:44:01;;;;;;;2.55;0.70;;;1.90;1.00;;;;;;5072762;28;20079;-67
2023/03/27 05:46:26;;;;;;;0.45;0.45;;;2.80;1.00;;;;;;5072760;28;20047;-69
2023/03/27 05:48:52;;;;;;;0.68;0.43;;;1.90;1.00;;;;;;5072730;28;20036;-67
2023/03/27 05:51:17;;;;;;;1.67;0.20;;;1.90;1.00;;;;;;5072649;28;20040;-70
2023/03/27 05:53:43;;;;;;;0.88;0.50;;;1.90;1.00;;;;;;5054352;28;20040;-70
2023/03/27 05:56:09;;;;;;;1.17;0.52;;;2.00;1.00;;;;;;5054634;28;20048;-73
2023/03/27 05:58:35;;;;;;;1.65;1.00;;;2.00;1.00;;;;;;5054295;28;20044;-69
2023/03/27 06:01:02;;;;;;;1.58;0.63;;;2.10;1.00;;;;;;5072182;28;20033;-69
2023/03/27 06:03:34;;;;;;;1.83;0.82;;;2.10;1.00;;;;;;5054707;28;20043;-69
2023/03/27 06:06:05;;;;;;;4.28;0.50;;;2.30;1.00;;;;;;5058050;28;20063;-67
2023/03/27 06:08:32;;;;;;;3.92;0.40;;;2.30;1.00;;;;;;5058147;28;20060;-68
2023/03/27 06:10:58;;;;;;;4.70;0.40;;;2.40;1.00;;;;;;5058098;28;20043;-70
2023/03/27 06:13:24;;;;;;;1.38;0.50;;;2.50;1.00;;;;;;5041357;28;20048;-68
2023/03/27 06:15:52;;;;;;;0.80;0.25;;;2.50;1.00;;;;;;5076129;28;20116;-70
2023/03/27 06:18:18;;;;;;;0.50;0.50;;;2.60;1.00;;;;;;5057804;28;20055;-70
2023/03/27 06:20:44;;;;;;;0.98;0.32;;;2.70;1.00;;;;;;5058036;28;20402;-66
2023/03/27 06:23:10;;;;;;;0.20;0.20;;;2.80;1.00;;;;;;5075957;28;20041;-66
2023/03/27 06:25:37;;;;;;;0.20;0.20;;;3.30;1.00;;;;;;5076021;28;20033;-66
2023/03/27 06:28:07;;;;;;;3.70;0.38;;;2.90;1.00;;;;;;5075622;28;20044;-66
2023/03/27 06:30:33;;;;;;;0.40;0.40;;;3.30;1.00;;;;;;5075682;28;20040;-66
2023/03/27 06:32:59;;;;;;;3.63;0.52;;;3.10;1.00;;;;;;5075939;28;20041;-66
2023/03/27 06:35:30;;;;;;;2.40;0.68;;;3.10;1.00;;;;;;5057586;28;20119;-66
2023/03/27 06:37:57;;;;;;;1.45;0.65;;;3.20;1.00;;;;;;5075668;28;20540;-72
2023/03/27 06:40:26;;;;;;;0.70;0.55;;;3.20;1.00;;;;;;5057496;28;20045;-72
2023/03/27 06:43:00;;;;;;;5.90;0.40;;;3.30;1.00;;;;;;5040852;28;20040;-66
2023/03/27 06:45:48;;;;;;;0.45;0.22;;;3.50;1.00;;;;;;5075718;28;20074;-66
2023/03/27 06:48:15;;;;;;;0.20;0.20;;;3.50;1.00;;;;;;5075265;28;20053;-66
2023/03/27 06:50:42;;;;;;;0.63;0.40;;;3.60;1.00;;;;;;5057609;28;20060;-67
2023/03/27 06:53:10;;;;;;;1.90;0.47;;;3.70;1.00;;;;;;5075486;28;20428;-66
2023/03/27 06:55:36;;;;;;;0.55;0.30;;;3.80;99.90;;;;;;5057051;28;20076;-66
2023/03/27 06:58:02;;;;;;;0.90;0.70;;;4.00;99.90;;;;;;5075165;28;20049;-66
2023/03/27 07:00:32;;;;;;;1.23;0.38;;;4.10;99.90;;;;;;5075278;28;20025;-66
2023/03/27 07:03:01;;;;;;;1.50;0.30;;;4.20;99.90;;;;;;5075210;28;20029;-66
2023/03/27 07:05:28;;;;;;;2.03;0.30;;;4.20;99.90;;;;;;5074730;28;20114;-65
2023/03/27 07:07:55;;;;;;;1.45;0.40;;;4.20;99.90;;;;;;5075105;28;20044;-65
2023/03/27 07:10:22;;;;;;;5.00;0.52;;;4.90;99.90;;;;;;5074818;28;20040;-65
2023/03/27 07:12:49;;;;;;;0.93;0.28;;;4.50;99.90;;;;;;5057044;28;20472;-65
2023/03/27 07:15:15;;;;;;;0.93;0.30;;;4.50;99.90;;;;;;5056561;28;20521;-65
2023/03/27 07:17:42;;;;;;;10.93;0.95;;;4.60;99.90;;;;;;5074909;28;20070;-66
2023/03/27 07:20:09;;;;;;;2.20;0.95;;;4.60;99.90;;;;;;5057009;28;20055;-65
2023/03/27 07:22:35;;;;;;;0.35;0.35;;;4.70;99.90;;;;;;5074884;28;20047;-65
2023/03/27 07:25:02;;;;;;;3.67;0.40;;;4.70;99.90;;;;;;5074832;28;20519;-65
2023/03/27 07:27:27;;;;;;;0.20;0.20;;;4.70;99.90;;;;;;5074752;28;20408;-65
2023/03/27 07:29:53;;;;;;;0.75;0.43;;;4.70;99.90;;;;;;5056917;28;20037;-65
2023/03/27 07:32:19;;;;;;;0.45;0.32;;;4.70;99.90;;;;;;5074801;28;20094;-65
2023/03/27 07:34:45;;;;;;;2.92;0.73;;;4.80;99.90;;;;;;5074640;28;20048;-65
2023/03/27 07:37:10;;;;;;;5.07;0.52;;;4.80;99.90;;;;;;5074602;28;20123;-65
2023/03/27 07:39:36;;;;;;;1.40;0.70;;;4.90;99.90;;;;;;5074638;28;20043;-66
2023/03/27 07:42:02;;;;;;;3.55;0.35;;;5.00;99.90;;;;;;5074541;28;20040;-66
2023/03/27 07:44:28;;;;;;;1.00;0.47;;;5.10;99.90;;;;;;5040000;28;20095;-66
2023/03/27 07:46:53;;;;;;;1.38;0.40;;;5.20;99.90;;;;;;5074732;28;20037;-65
2023/03/27 07:49:19;;;;;;;4.18;0.73;;;5.30;57.70;;;;;;5074197;28;20040;-65
2023/03/27 07:51:45;;;;;;;1.17;0.35;;;5.30;1.00;;;;;;5074286;28;20072;-65
2023/03/27 07:54:14;;;;;;;1.48;0.50;;;5.40;1.00;;;;;;5056153;28;20085;-66
2023/03/27 07:56:40;;;;;;;2.08;0.60;;;5.50;1.00;;;;;;5074236;28;20048;-65
2023/03/27 07:59:05;;;;;;;1.80;0.40;;;5.70;1.00;;;;;;5074177;28;20081;-67
2023/03/27 08:01:31;;;;;;;1.80;0.47;;;6.00;1.00;;;;;;5074149;28;20036;-65
2023/03/27 08:03:58;;;;;;;1.27;0.50;;;6.10;99.90;;;;;;5073845;28;20036;-65
2023/03/27 08:06:24;;;;;;;3.70;0.50;;;6.50;99.90;;;;;;5074062;28;20041;-65
2023/03/27 08:08:50;;;;;;;2.88;0.85;;;6.50;99.90;;;;;;5074054;28;20432;-65
2023/03/27 08:11:17;;;;;;;1.80;0.60;;;6.50;99.90;;;;;;5073957;28;20071;-65
2023/03/27 08:13:43;;;;;;;2.22;0.63;;;6.50;99.90;;;;;;5073619;28;20063;-65
2023/03/27 08:16:15;;;;;;;3.45;0.63;;;6.30;99.90;;;;;;5073880;28;20040;-65
2023/03/27 08:18:41;;;;;;;2.10;0.63;;;6.20;99.90;;;;;;5073855;28;20086;-65
2023/03/27 08:21:09;;;;;;;2.88;0.45;;;6.20;1.00;;;;;;5073398;28;20438;-65
2023/03/27 08:23:36;;;;;;;0.50;0.35;;;6.20;99.90;;;;;;5073726;28;20494;-65
2023/03/27 08:26:02;;;;;;;0.52;0.30;;;6.10;99.90;;;;;;5073194;28;20047;-66
2023/03/27 08:28:36;;;;;;;0.60;0.35;;;6.00;99.90;;;;;;5073151;28;20036;-66
2023/03/27 08:31:10;;;;;;;0.85;0.40;;;5.90;99.90;;;;;;5073516;28;20479;-65
2023/03/27 08:33:36;;;;;;;1.27;0.25;;;5.80;99.90;;;;;;5073234;28;20043;-66
2023/03/27 08:36:03;;;;;;;0.43;0.40;;;5.70;99.90;;;;;;5073408;28;20051;-66
2023/03/27 08:38:31;;;;;;;0.57;0.35;;;6.00;66.20;;;;;;5073239;28;20047;-67
2023/03/27 08:40:58;;;;;;;0.65;0.40;;;5.80;99.90;;;;;;5073142;28;20036;-66
2023/03/27 08:43:32;;;;;;;2.83;0.30;;;5.90;1.00;;;;;;5038645;28;20119;-66
2023/03/27 08:46:07;;;;;;;1.52;0.43;;;6.00;99.90;;;;;;5038921;28;20037;-66
2023/03/27 08:48:40;;;;;;;1.05;0.60;;;6.00;99.90;;;;;;5073426;28;20040;-66
2023/03/27 08:51:11;;;;;;;1.30;0.30;;;6.20;99.90;;;;;;5038496;28;20128;-66
2023/03/27 08:54:05;;;;;;;1.85;0.50;;;6.20;99.90;;;;;;5073270;28;20032;-66
2023/03/27 08:56:31;;;;;;;0.88;0.40;;;6.30;1.00;;;;;;5061590;28;20052;-66
2023/03/27 08:58:57;;;;;;;1.75;0.35;;;6.40;99.90;;;;;;5072973;28;20530;-66
2023/03/27 09:01:39;;;;;;;0.98;0.30;;;6.90;99.90;;;;;;5073188;28;20376;-66
2023/03/27 09:04:26;;;;;;;4.97;0.40;;;6.60;99.90;;;;;;5072924;28;20048;-66
2023/03/27 09:07:08;;;;;;;1.35;0.50;;;6.70;94.30;;;;;;5072767;28;20059;-66
2023/03/27 09:09:48;;;;;;;0.30;0.30;;;6.70;99.90;;;;;;5054879;28;20087;-66
2023/03/27 09:12:47;;;;;;;1.45;0.40;;;6.80;93.40;;;;;;5055102;28;20048;-66
2023/03/27 09:15:27;;;;;;;2.63;0.40;;;6.90;99.90;;;;;;5073042;28;20119;-66
2023/03/27 09:17:59;;;;;;;0.98;0.40;;;7.00;99.90;;;;;;5072925;28;20047;-67
2023/03/27 09:20:32;;;;;;;;;;;7.20;97.50;;;;;;5073399;28;20040;-66
2023/03/27 09:23:09;;;;;;;1.48;0.40;;;7.30;99.90;;;;;;5073009;28;19916;-66
2023/03/27 09:25:46;;;;;;;2.13;0.50;;;7.40;1.00;;;;;;5072950;28;20037;-66
2023/03/27 09:28:20;;;;;;;0.55;0.45;;;7.30;99.90;;;;;;5054715;28;20072;-66
2023/03/27 09:30:46;;;;;;;6.43;0.63;;;7.30;99.90;;;;;;5072890;28;20176;-66
2023/03/27 09:33:12;;;;;;;0.52;0.50;;;7.20;99.90;;;;;;5072575;28;20083;-66
2023/03/27 09:35:38;;;;;;;2.85;0.50;;;7.30;99.90;;;;;;5054631;28;20045;-66
2023/03/27 09:38:13;;;;;;;1.13;0.50;;;7.50;99.90;;;;;;5074021;28;20048;-66
2023/03/27 09:40:52;;;;;;;1.23;0.43;;;7.50;1.00;;;;;;5076904;28;20045;-66
2023/03/27 09:43:21;;;;;;;0.73;0.40;;;7.60;1.00;;;;;;5076915;28;20373;-66
2023/03/27 09:45:50;;;;;;;3.20;0.63;;;7.30;99.90;;;;;;5076401;28;20046;-66
2023/03/27 09:48:45;;;;;;;1.70;0.80;;;6.90;99.90;;;;;;5076830;28;20044;-66
2023/03/27 09:51:40;;;;;;;0.70;0.30;;;6.90;99.90;;;;;;5067738;28;20099;-66
2023/03/27 09:54:08;;;;;;;3.22;0.40;;;7.20;93.10;;;;;;5055233;28;20106;-66
2023/03/27 09:56:45;;;;;;;1.10;0.43;;;7.60;1.00;;;;;;5076217;28;20407;-66
2023/03/27 09:59:29;;;;;;;0.80;0.25;;;7.70;99.90;;;;;;5076344;28;20054;-66
2023/03/27 10:02:06;;;;;;;0.43;0.30;;;7.60;99.90;;;;;;5076472;28;20418;-66
2023/03/27 10:04:32;;;;;;;2.60;0.75;;;7.30;99.90;;;;;;5058360;28;20132;-66
2023/03/27 10:07:07;;;;;;;0.70;0.30;;;7.10;99.90;;;;;;5076636;28;20079;-66
2023/03/27 10:09:37;;;;;;;0.75;0.75;;;7.30;1.00;;;;;;5076358;28;20040;-66
2023/03/27 10:12:10;;;;;;;1.23;0.30;;;7.60;1.00;;;;;;5075889;28;20055;-66
2023/03/27 10:14:40;;;;;;;0.93;0.30;;;7.90;1.00;;;;;;5076026;28;20119;-66
2023/03/27 10:17:31;;;;;;;1.30;0.83;;;8.20;99.90;;;;;;5058018;28;20048;-66
2023/03/27 10:20:14;;;;;;;6.07;0.77;;;8.40;99.90;;;;;;5076235;28;20037;-66
2023/03/27 10:22:42;;;;;;;1.67;0.50;;;8.40;1.00;;;;;;5076117;28;20036;-66
2023/03/27 10:25:40;;;;;;;0.43;0.30;;;8.10;99.90;;;;;;5076049;28;20082;-66
2023/03/27 10:28:13;;;;;;;1.75;0.50;;;8.10;99.90;;;;;;5075693;28;20048;-66
2023/03/27 10:30:39;;;;;;;1.08;0.40;;;8.40;99.90;;;;;;5075729;28;20045;-66
2023/03/27 10:33:06;;;;;;;0.10;0.10;;;8.70;99.90;;;;;;5075565;28;20495;-66
2023/03/27 10:35:36;;;;;;;1.55;0.30;;;8.60;99.90;;;;;;5058339;28;20096;-66
2023/03/27 10:38:14;;;;;;;0.75;0.30;;;10.00;99.90;;;;;;5057862;28;20484;-65
2023/03/27 10:40:42;;;;;;;1.27;0.43;;;8.00;99.90;;;;;;5059513;28;20040;-65
2023/03/27 10:43:40;;;;;;;3.15;0.55;;;8.60;99.90;;;;;;5075715;28;20369;-65
2023/03/27 10:46:19;;;;;;;0.63;0.30;;;7.30;99.90;;;;;;5075688;28;20036;-65
2023/03/27 10:49:00;;;;;;;1.45;0.30;;;7.60;99.90;;;;;;5075621;28;20107;-67
2023/03/27 10:51:50;;;;;;;2.15;0.20;;;8.00;99.90;;;;;;5057266;28;20123;-66
2023/03/27 10:54:42;;;;;;;1.20;0.20;;;8.20;99.90;;;;;;5075263;28;20036;-64
2023/03/27 10:57:31;;;;;;;1.48;0.55;;;8.10;99.90;;;;;;5057372;28;20488;-67
2023/03/27 11:00:18;;;;;;;2.05;0.40;;;8.10;99.90;;;;;;5075434;28;20039;-69
2023/03/27 11:02:57;;;;;;;0.35;0.32;;;8.10;99.90;;;;;;5057378;28;20049;-67
2023/03/27 11:05:37;;;;;;;3.88;0.45;;;8.40;99.90;;;;;;5056976;28;20055;-66
2023/03/27 11:08:03;;;;;;;0.15;0.15;;;8.70;99.90;;;;;;5057107;28;20036;-67
2023/03/27 11:10:56;;;;;;;0.60;0.40;;;8.50;99.90;;;;;;5075235;28;20142;-67
2023/03/27 11:13:32;;;;;;;1.05;0.70;;;8.40;99.90;;;;;;5071222;28;20103;-67
2023/03/27 11:16:28;;;;;;;0.63;0.30;;;8.40;57.20;;;;;;5056848;28;20044;-66
2023/03/27 11:19:27;;;;;;;2.00;0.43;;;8.60;59.40;;;;;;5075114;28;20086;-67
2023/03/27 11:21:57;;;;;;;2.03;0.40;;;8.70;90.60;;;;;;5057055;28;20128;-66
2023/03/27 11:24:31;;;;;;;0.77;0.40;;;8.90;5.50;;;;;;5075050;28;20082;-66
2023/03/27 11:27:14;;;;;;;2.72;0.50;;;9.30;7.80;;;;;;5074924;28;20048;-66
2023/03/27 11:30:08;;;;;;;0.63;0.30;;;9.40;8.10;;;;;;5074942;28;20044;-67
2023/03/27 11:33:17;;;;;;;0.65;0.30;;;9.50;1.00;;;;;;5074569;28;20079;-66
2023/03/27 11:35:52;;;;;;;0.95;0.40;;;9.10;1.00;;;;;;5074791;28;20395;-66
2023/03/27 11:38:24;;;;;;;0.50;0.50;;;9.00;1.00;;;;;;5056522;28;20044;-66
2023/03/27 11:40:50;;;;;;;1.63;0.57;;;9.00;99.90;;;;;;5074369;28;20036;-68
2023/03/27 11:43:18;;;;;;;1.35;0.55;;;9.50;1.00;;;;;;5056581;28;20190;-65
2023/03/27 11:45:56;;;;;;;1.10;0.70;;;9.70;1.00;;;;;;5074494;28;20395;-65
2023/03/27 11:48:31;;;;;;;1.35;0.65;;;10.30;1.00;;;;;;5074440;28;20087;-66
2023/03/27 11:51:36;;;;;;;2.92;0.65;;;9.70;99.90;;;;;;5074406;28;20040;-66
2023/03/27 11:54:18;;;;;;;1.67;0.50;;;9.40;1.00;;;;;;5074097;28;20132;-66
2023/03/27 11:56:54;;;;;;;2.00;0.38;;;8.20;1.00;;;;;;5074171;28;20036;-65
2023/03/27 11:59:59;;;;;;;0.60;0.30;;;7.40;99.90;;;;;;5074297;28;20434;-65
2023/03/27 12:03:02;;;;;;;0.55;0.40;;;6.20;1.00;;;;;;5074202;28;20033;-66
2023/03/27 12:05:30;;;;;;;0.98;0.30;;;6.10;1.00;;;;;;5073699;28;20048;-65
2023/03/27 12:08:03;;;;;;;0.30;0.30;;;5.90;99.90;;;;;;5056192;28;20436;-65
2023/03/27 12:10:31;;;;;;;1.08;0.47;;;7.30;99.90;;;;;;5056153;28;20059;-65
2023/03/27 12:13:18;;;;;;;0.75;0.30;;;6.60;6.50;;;;;;5073976;28;20400;-66
2023/03/27 12:15:59;;;;;;;0.88;0.68;;;6.90;99.90;;;;;;5073965;28;20040;-65
2023/03/27 12:19:04;;;;;;;0.30;0.30;;;7.30;1.00;;;;;;5073445;28;20063;-66
2023/03/27 12:21:45;;;;;;;2.08;0.43;;;8.00;1.00;;;;;;5055868;28;20047;-65
2023/03/27 12:24:27;;;;;;;0.88;0.40;;;8.20;99.90;;;;;;5073777;28;20025;-65
2023/03/27 12:27:05;;;;;;;2.75;0.55;;;8.50;1.00;;;;;;5055730;28;20040;-66
2023/03/27 12:30:02;;;;;;;1.17;0.28;;;8.90;99.90;;;;;;5056015;28;20098;-65
2023/03/27 12:32:49;;;;;;;0.80;0.57;;;9.30;99.90;;;;;;5073625;28;20089;-66
2023/03/27 12:35:19;;;;;;;0.63;0.30;;;9.00;99.90;;;;;;5073543;28;20044;-66
2023/03/27 12:37:54;;;;;;;0.40;0.30;;;8.70;34.20;;;;;;5055409;28;20488;-66
2023/03/27 12:40:29;;;;;;;1.35;0.50;;;9.00;54.40;;;;;;5073548;28;20395;-66
2023/03/27 12:43:18;;;;;;;0.45;0.45;;;9.40;1.00;;;;;;5055500;28;20097;-66
2023/03/27 12:46:09;;;;;;;0.47;0.43;;;9.30;1.00;;;;;;5055248;28;20435;-66
2023/03/27 12:49:04;;;;;;;5.75;0.60;;;9.80;99.90;;;;;;5073398;28;20404;-66
2023/03/27 12:51:43;;;;;;;2.20;0.80;;;9.50;99.90;;;;;;5055383;28;20048;-66
2023/03/27 12:54:35;;;;;;;1.50;0.40;;;10.30;99.90;;;;;;5072983;28;20044;-66
2023/03/27 12:57:14;;;;;;;1.38;0.50;;;10.80;99.90;;;;;;5072920;28;20032;-66
2023/03/27 12:59:54;;;;;;;1.25;0.30;;;11.00;99.90;;;;;;5055020;28;20123;-66
2023/03/27 13:02:41;;;;;;;1.00;0.32;;;11.50;99.90;;;;;;5073224;28;20032;-66
2023/03/27 13:05:45;;;;;;;0.25;0.20;;;10.80;99.90;;;;;;5072860;28;20463;-65
2023/03/27 13:08:41;;;;;;;0.70;0.30;;;10.90;99.90;;;;;;5072798;28;20072;-66
2023/03/27 13:11:19;;;;;;;2.80;0.35;;;10.30;99.90;;;;;;5073082;28;20128;-65
2023/03/27 13:14:22;;;;;;;0.55;0.32;;;9.50;99.90;;;;;;5054457;28;20076;-65
2023/03/27 13:17:13;;;;;;;2.10;0.55;;;8.60;99.90;;;;;;5072653;28;20048;-65
2023/03/27 13:20:11;;;;;;;3.78;0.68;;;8.20;99.90;;;;;;5072792;28;20039;-65
2023/03/27 13:22:55;;;;;;;1.02;0.30;;;8.20;99.90;;;;;;5022003;28;20040;-65
2023/03/27 13:25:38;;;;;;;0.32;0.32;;;8.80;99.90;;;;;;5072960;28;20512;-65
2023/03/27 13:28:30;;;;;;;1.98;0.47;;;9.30;99.90;;;;;;5072647;28;20044;-65
2023/03/27 13:30:57;;;;;;;6.55;1.20;;;9.80;99.90;;;;;;5072898;28;20515;-66
2023/03/27 13:33:44;;;;;;;1.08;0.55;;;10.60;99.90;;;;;;5054932;28;20476;-67